MDT,Max TemperatureF,Mean TemperatureF,Min TemperatureF,Max Dew PointF,MeanDew PointF,Min DewpointF,Max Humidity, Mean Humidity, Min Humidity, Max Sea Level PressureIn, Mean Sea Level PressureIn, Min Sea Level PressureIn, Max VisibilityMiles, Mean VisibilityMiles, Min VisibilityMiles, Max Wind SpeedMPH, Mean Wind SpeedMPH, Max Gust SpeedMPH,PrecipitationIn, CloudCover, Events, WindDirDegrees
2011-10-1,55,46,43,39,37,36,76,69,53,30.32,30.21,30.11,10,10,10,7,5,,0.00,0,,85
2011-10-2,,,,,,,,,,30.33,30.26,30.21,,,,,,,0.00,,,-1
2011-10-3,75,64,53,46,42,38,72,46,26,30.30,30.22,30.14,10,10,8,13,7,17,0.00,4,Rain-Thunderstorm,209
2011-10-4,59,54,50,52,48,45,94,84,64,30.20,30.05,29.93,10,7,0,20,5,32,0.39,7,Fog-Rain,160
2011-10-5,61,53,46,46,43,39,93,69,49,30.03,29.85,29.64,10,10,10,20,7,30,0.05,6,Rain,176
2011-10-6,53,44,33,45,37,27,93,78,41,29.93,29.70,29.50,10,7,1,29,14,45,0.84,6,Rain,217
2011-10-7,46,37,28,39,34,27,92,84,63,30.01,29.96,29.90,10,10,3,15,4,17,0.05,4,Rain,253
2011-10-8,50,40,32,34,32,29,92,73,50,30.11,30.02,29.94,10,10,10,15,6,17,0.00,3,,342
2011-10-9,57,42,28,36,31,26,92,74,40,30.16,30.10,30.04,10,10,10,14,3,,0.00,0,,184
2011-10-10,62,46,30,34,30,27,89,66,30,30.13,30.04,29.95,10,10,10,14,3,,0.00,0,,143
2011-10-11,64,50,36,38,34,31,86,59,30,30.02,29.95,29.86,10,10,10,14,3,,0.00,2,,324
2011-10-12,70,52,34,37,29,20,89,51,15,30.13,30.07,30.03,10,10,10,16,7,23,0.00,0,,24
2011-10-13,71,50,30,30,26,20,79,49,16,30.16,30.08,30.00,10,10,10,14,6,20,0.00,0,,55
2011-10-14,75,56,36,33,30,26,82,50,16,30.12,30.05,29.98,10,10,10,14,6,20,0.00,0,,31
2011-10-15,78,56,35,34,31,26,82,50,15,30.19,30.09,30.01,10,10,10,13,4,,0.00,0,,142
2011-10-16,77,55,35,34,30,20,82,47,12,30.16,30.05,29.97,10,10,10,14,4,18,0.00,0,,24
2011-10-17,66,54,39,34,28,20,67,44,17,30.16,30.07,29.95,10,10,10,23,9,32,0.00,1,,29
2011-10-18,66,48,30,28,22,14,76,42,16,30.25,30.17,30.12,10,10,10,21,8,28,0.00,0,,21
2011-10-19,66,45,26,25,19,13,72,44,13,30.19,30.09,30.00,10,10,9,13,5,17,0.00,0,Snow,94
2011-10-20,70,50,30,26,23,20,72,45,16,30.17,30.08,30.02,10,10,10,13,6,16,0.00,0,,64
2011-10-21,70,48,28,27,24,21,78,45,17,30.27,30.17,30.13,10,10,9,14,5,,0.00,0,Snow,63
2011-10-22,72,50,30,28,25,22,79,46,16,30.27,30.18,30.11,10,10,9,15,6,22,0.00,0,Snow,32
2011-10-23,71,50,30,30,27,23,79,50,22,30.23,30.17,30.11,10,10,9,10,6,,0.00,0,Snow,106
2011-10-24,73,50,28,29,24,15,79,47,12,30.22,30.10,30.00,10,10,10,17,5,22,0.00,0,Snow,116
2011-10-25,64,54,43,47,38,27,100,66,40,30.08,30.00,29.88,10,10,5,16,6,23,0.11,6,Rain-Thunderstorm,67
2011-10-26,46,42,37,45,39,31,93,84,70,30.03,29.94,29.82,10,8,2,15,5,21,0.15,7,Rain-Thunderstorm,277
2011-10-27,52,40,28,36,29,24,92,71,43,30.17,30.09,30.02,10,10,10,13,2,16,0.00,2,,139
2011-10-28,53,38,24,33,27,20,92,71,31,30.34,30.27,30.19,10,10,9,15,6,,0.00,0,,102
2011-10-29,57,40,24,30,25,20,89,63,24,30.32,30.22,30.12,10,10,10,14,4,18,0.00,0,,78
2011-10-30,63,44,26,29,25,21,82,56,22,30.31,30.24,30.17,10,10,10,12,6,,0.00,0,,72
2011-10-31,64,44,26,30,26,22,85,60,25,30.27,30.16,30.06,10,10,10,8,3,,0.00,0,,74